sensor_id;sensor_type;location;lat;lon;timestamp;P1;durP1;ratioP1;P2;durP2;ratioP2
50319;SDS011;36226;53.464;9.852;2023-04-03T00:00:46;6.18;;;1.85;;
50319;SDS011;36226;53.464;9.852;2023-04-03T00:03:11;7.00;;;1.50;;
50319;SDS011;36226;53.464;9.852;2023-04-03T00:05:37;7.10;;;1.95;;
50319;SDS011;36226;53.464;9.852;2023-04-03T00:08:02;9.10;;;1.88;;
50319;SDS011;36226;53.464;9.852;2023-04-03T00:10:29;6.60;;;1.67;;
50319;SDS011;36226;53.464;9.852;2023-04-03T00:12:55;4.20;;;1.50;;
50319;SDS011;36226;53.464;9.852;2023-04-03T00:15:20;6.07;;;1.83;;
50319;SDS011;36226;53.464;9.852;2023-04-03T00:17:45;9.23;;;1.50;;
50319;SDS011;36226;53.464;9.852;2023-04-03T00:20:11;7.60;;;2.08;;
50319;SDS011;36226;53.464;9.852;2023-04-03T00:22:36;4.97;;;1.70;;
50319;SDS011;36226;53.464;9.852;2023-04-03T00:25:02;5.43;;;1.70;;
50319;SDS011;36226;53.464;9.852;2023-04-03T00:27:28;6.20;;;1.92;;
50319;SDS011;36226;53.464;9.852;2023-04-03T00:29:53;4.07;;;1.65;;
50319;SDS011;36226;53.464;9.852;2023-04-03T00:32:18;3.47;;;1.42;;
50319;SDS011;36226;53.464;9.852;2023-04-03T00:34:44;5.10;;;1.70;;
50319;SDS011;36226;53.464;9.852;2023-04-03T00:37:09;4.03;;;1.60;;
50319;SDS011;36226;53.464;9.852;2023-04-03T00:39:35;6.15;;;1.60;;
50319;SDS011;36226;53.464;9.852;2023-04-03T00:42:00;10.45;;;1.60;;
50319;SDS011;36226;53.464;9.852;2023-04-03T00:47:00;5.07;;;1.70;;
50319;SDS011;36226;53.464;9.852;2023-04-03T00:49:27;5.97;;;1.60;;
50319;SDS011;36226;53.464;9.852;2023-04-03T00:51:53;9.38;;;2.30;;
50319;SDS011;36226;53.464;9.852;2023-04-03T00:54:19;4.55;;;1.70;;
50319;SDS011;36226;53.464;9.852;2023-04-03T00:56:45;5.60;;;1.88;;
50319;SDS011;36226;53.464;9.852;2023-04-03T00:59:12;5.30;;;1.52;;
50319;SDS011;36226;53.464;9.852;2023-04-03T01:01:40;4.22;;;1.58;;
50319;SDS011;36226;53.464;9.852;2023-04-03T01:04:24;6.75;;;1.50;;
50319;SDS011;36226;53.464;9.852;2023-04-03T01:07:09;5.72;;;1.80;;
50319;SDS011;36226;53.464;9.852;2023-04-03T01:09:36;6.00;;;1.42;;
50319;SDS011;36226;53.464;9.852;2023-04-03T01:12:12;5.10;;;1.65;;
50319;SDS011;36226;53.464;9.852;2023-04-03T01:14:51;4.03;;;1.48;;
50319;SDS011;36226;53.464;9.852;2023-04-03T01:17:28;5.93;;;1.73;;
50319;SDS011;36226;53.464;9.852;2023-04-03T01:25:37;5.75;;;1.88;;
50319;SDS011;36226;53.464;9.852;2023-04-03T01:28:07;4.32;;;1.60;;
50319;SDS011;36226;53.464;9.852;2023-04-03T01:30:34;5.43;;;1.83;;
50319;SDS011;36226;53.464;9.852;2023-04-03T01:33:03;7.22;;;1.70;;
50319;SDS011;36226;53.464;9.852;2023-04-03T01:35:28;3.38;;;1.60;;
50319;SDS011;36226;53.464;9.852;2023-04-03T01:37:54;6.78;;;1.80;;
50319;SDS011;36226;53.464;9.852;2023-04-03T01:40:19;6.75;;;1.85;;
50319;SDS011;36226;53.464;9.852;2023-04-03T01:42:45;5.32;;;2.00;;
50319;SDS011;36226;53.464;9.852;2023-04-03T01:45:10;5.65;;;1.80;;
50319;SDS011;36226;53.464;9.852;2023-04-03T01:47:36;5.90;;;1.50;;
50319;SDS011;36226;53.464;9.852;2023-04-03T01:50:01;6.30;;;1.98;;
50319;SDS011;36226;53.464;9.852;2023-04-03T01:52:27;7.20;;;1.67;;
50319;SDS011;36226;53.464;9.852;2023-04-03T01:54:52;7.93;;;1.73;;
50319;SDS011;36226;53.464;9.852;2023-04-03T01:57:17;6.78;;;2.10;;
50319;SDS011;36226;53.464;9.852;2023-04-03T01:59:43;9.93;;;1.80;;
50319;SDS011;36226;53.464;9.852;2023-04-03T02:02:08;6.38;;;1.65;;
50319;SDS011;36226;53.464;9.852;2023-04-03T02:04:34;9.90;;;1.92;;
50319;SDS011;36226;53.464;9.852;2023-04-03T02:06:59;8.18;;;1.55;;
50319;SDS011;36226;53.464;9.852;2023-04-03T02:09:25;5.28;;;1.83;;
50319;SDS011;36226;53.464;9.852;2023-04-03T02:11:51;6.85;;;1.70;;
50319;SDS011;36226;53.464;9.852;2023-04-03T02:14:17;4.50;;;1.40;;
50319;SDS011;36226;53.464;9.852;2023-04-03T02:16:42;5.82;;;1.70;;
50319;SDS011;36226;53.464;9.852;2023-04-03T02:19:08;4.22;;;1.60;;
50319;SDS011;36226;53.464;9.852;2023-04-03T02:21:33;5.15;;;1.50;;
50319;SDS011;36226;53.464;9.852;2023-04-03T02:23:59;4.68;;;1.25;;
50319;SDS011;36226;53.464;9.852;2023-04-03T02:26:24;7.18;;;1.52;;
50319;SDS011;36226;53.464;9.852;2023-04-03T02:28:50;5.00;;;1.52;;
50319;SDS011;36226;53.464;9.852;2023-04-03T02:31:16;2.28;;;1.30;;
50319;SDS011;36226;53.464;9.852;2023-04-03T02:33:42;5.30;;;1.30;;
50319;SDS011;36226;53.464;9.852;2023-04-03T02:36:08;9.32;;;1.40;;
50319;SDS011;36226;53.464;9.852;2023-04-03T02:38:33;6.32;;;1.50;;
50319;SDS011;36226;53.464;9.852;2023-04-03T02:41:03;4.95;;;1.48;;
50319;SDS011;36226;53.464;9.852;2023-04-03T02:43:30;2.90;;;1.25;;
50319;SDS011;36226;53.464;9.852;2023-04-03T02:45:56;3.03;;;1.25;;
50319;SDS011;36226;53.464;9.852;2023-04-03T02:48:21;5.03;;;1.25;;
50319;SDS011;36226;53.464;9.852;2023-04-03T02:50:47;4.20;;;1.23;;
50319;SDS011;36226;53.464;9.852;2023-04-03T02:53:13;4.30;;;1.38;;
50319;SDS011;36226;53.464;9.852;2023-04-03T02:55:38;3.45;;;1.40;;
50319;SDS011;36226;53.464;9.852;2023-04-03T02:58:03;5.60;;;1.20;;
50319;SDS011;36226;53.464;9.852;2023-04-03T03:00:29;4.93;;;1.25;;
50319;SDS011;36226;53.464;9.852;2023-04-03T03:02:55;4.85;;;1.30;;
50319;SDS011;36226;53.464;9.852;2023-04-03T03:05:23;3.83;;;1.08;;
50319;SDS011;36226;53.464;9.852;2023-04-03T03:07:48;6.22;;;1.20;;
50319;SDS011;36226;53.464;9.852;2023-04-03T03:10:14;5.60;;;1.40;;
50319;SDS011;36226;53.464;9.852;2023-04-03T03:12:39;5.90;;;1.55;;
50319;SDS011;36226;53.464;9.852;2023-04-03T03:15:05;8.50;;;1.63;;
50319;SDS011;36226;53.464;9.852;2023-04-03T03:17:31;4.30;;;1.20;;
50319;SDS011;36226;53.464;9.852;2023-04-03T03:19:57;3.88;;;1.30;;
50319;SDS011;36226;53.464;9.852;2023-04-03T03:22:22;5.07;;;1.33;;
50319;SDS011;36226;53.464;9.852;2023-04-03T03:24:47;5.88;;;1.58;;
50319;SDS011;36226;53.464;9.852;2023-04-03T03:27:13;4.63;;;1.00;;
50319;SDS011;36226;53.464;9.852;2023-04-03T03:29:38;3.63;;;1.05;;
50319;SDS011;36226;53.464;9.852;2023-04-03T03:32:04;3.80;;;1.33;;
50319;SDS011;36226;53.464;9.852;2023-04-03T03:34:29;6.93;;;1.40;;
50319;SDS011;36226;53.464;9.852;2023-04-03T03:36:55;3.30;;;1.25;;
50319;SDS011;36226;53.464;9.852;2023-04-03T03:39:21;3.58;;;1.13;;
50319;SDS011;36226;53.464;9.852;2023-04-03T03:41:46;5.88;;;1.52;;
50319;SDS011;36226;53.464;9.852;2023-04-03T03:44:12;5.95;;;1.35;;
50319;SDS011;36226;53.464;9.852;2023-04-03T03:46:37;6.35;;;1.38;;
50319;SDS011;36226;53.464;9.852;2023-04-03T03:49:03;7.03;;;1.48;;
50319;SDS011;36226;53.464;9.852;2023-04-03T03:51:28;3.72;;;1.25;;
50319;SDS011;36226;53.464;9.852;2023-04-03T03:53:53;8.93;;;1.42;;
50319;SDS011;36226;53.464;9.852;2023-04-03T03:56:19;4.57;;;1.30;;
50319;SDS011;36226;53.464;9.852;2023-04-03T03:58:45;5.18;;;1.15;;
50319;SDS011;36226;53.464;9.852;2023-04-03T04:01:11;3.45;;;1.20;;
50319;SDS011;36226;53.464;9.852;2023-04-03T04:03:36;5.05;;;1.30;;
50319;SDS011;36226;53.464;9.852;2023-04-03T04:06:02;4.88;;;1.40;;
50319;SDS011;36226;53.464;9.852;2023-04-03T04:08:27;5.05;;;1.40;;
50319;SDS011;36226;53.464;9.852;2023-04-03T04:10:53;3.05;;;1.10;;
50319;SDS011;36226;53.464;9.852;2023-04-03T04:13:18;4.65;;;1.27;;
50319;SDS011;36226;53.464;9.852;2023-04-03T04:15:44;3.35;;;1.20;;
50319;SDS011;36226;53.464;9.852;2023-04-03T04:18:09;3.03;;;0.93;;
50319;SDS011;36226;53.464;9.852;2023-04-03T04:20:37;2.17;;;1.17;;
50319;SDS011;36226;53.464;9.852;2023-04-03T04:23:03;5.10;;;1.38;;
50319;SDS011;36226;53.464;9.852;2023-04-03T04:25:28;11.55;;;1.48;;
50319;SDS011;36226;53.464;9.852;2023-04-03T04:27:53;2.97;;;1.30;;
50319;SDS011;36226;53.464;9.852;2023-04-03T04:30:19;4.03;;;1.30;;
50319;SDS011;36226;53.464;9.852;2023-04-03T04:32:44;5.72;;;1.30;;
50319;SDS011;36226;53.464;9.852;2023-04-03T04:35:09;4.93;;;1.45;;
50319;SDS011;36226;53.464;9.852;2023-04-03T04:37:35;4.93;;;1.13;;
50319;SDS011;36226;53.464;9.852;2023-04-03T04:40:00;3.88;;;1.20;;
50319;SDS011;36226;53.464;9.852;2023-04-03T04:42:26;2.88;;;0.90;;
50319;SDS011;36226;53.464;9.852;2023-04-03T04:44:52;2.97;;;1.30;;
50319;SDS011;36226;53.464;9.852;2023-04-03T04:47:17;3.00;;;1.27;;
50319;SDS011;36226;53.464;9.852;2023-04-03T04:49:42;5.38;;;1.00;;
50319;SDS011;36226;53.464;9.852;2023-04-03T04:52:08;2.30;;;1.00;;
50319;SDS011;36226;53.464;9.852;2023-04-03T04:54:33;4.28;;;1.42;;
50319;SDS011;36226;53.464;9.852;2023-04-03T04:56:58;8.90;;;1.13;;
50319;SDS011;36226;53.464;9.852;2023-04-03T04:59:24;3.30;;;1.00;;
50319;SDS011;36226;53.464;9.852;2023-04-03T05:01:49;3.30;;;1.13;;
50319;SDS011;36226;53.464;9.852;2023-04-03T05:04:15;2.90;;;1.30;;
50319;SDS011;36226;53.464;9.852;2023-04-03T05:06:40;3.90;;;1.30;;
50319;SDS011;36226;53.464;9.852;2023-04-03T05:09:06;4.10;;;1.33;;
50319;SDS011;36226;53.464;9.852;2023-04-03T05:11:31;6.20;;;1.30;;
50319;SDS011;36226;53.464;9.852;2023-04-03T05:13:57;3.95;;;1.20;;
50319;SDS011;36226;53.464;9.852;2023-04-03T05:16:22;2.55;;;1.38;;
50319;SDS011;36226;53.464;9.852;2023-04-03T05:18:47;4.55;;;1.70;;
50319;SDS011;36226;53.464;9.852;2023-04-03T05:21:13;5.53;;;1.67;;
50319;SDS011;36226;53.464;9.852;2023-04-03T05:23:38;6.07;;;1.77;;
50319;SDS011;36226;53.464;9.852;2023-04-03T05:26:03;5.43;;;1.77;;
50319;SDS011;36226;53.464;9.852;2023-04-03T05:28:29;5.32;;;1.67;;
50319;SDS011;36226;53.464;9.852;2023-04-03T05:30:55;4.35;;;1.55;;
50319;SDS011;36226;53.464;9.852;2023-04-03T05:33:21;4.13;;;1.35;;
50319;SDS011;36226;53.464;9.852;2023-04-03T05:35:47;4.15;;;1.27;;
50319;SDS011;36226;53.464;9.852;2023-04-03T05:38:12;2.22;;;1.20;;
50319;SDS011;36226;53.464;9.852;2023-04-03T05:40:37;6.15;;;1.50;;
50319;SDS011;36226;53.464;9.852;2023-04-03T05:43:03;4.43;;;1.50;;
50319;SDS011;36226;53.464;9.852;2023-04-03T05:45:28;4.10;;;1.50;;
50319;SDS011;36226;53.464;9.852;2023-04-03T05:47:54;3.63;;;1.58;;
50319;SDS011;36226;53.464;9.852;2023-04-03T05:50:19;4.40;;;1.40;;
50319;SDS011;36226;53.464;9.852;2023-04-03T05:52:45;5.78;;;1.60;;
50319;SDS011;36226;53.464;9.852;2023-04-03T05:55:13;5.22;;;1.30;;
50319;SDS011;36226;53.464;9.852;2023-04-03T05:57:38;8.18;;;1.40;;
50319;SDS011;36226;53.464;9.852;2023-04-03T06:00:04;6.03;;;1.80;;
50319;SDS011;36226;53.464;9.852;2023-04-03T06:02:31;6.65;;;1.83;;
50319;SDS011;36226;53.464;9.852;2023-04-03T06:04:56;2.20;;;1.30;;
50319;SDS011;36226;53.464;9.852;2023-04-03T06:07:23;5.90;;;1.60;;
50319;SDS011;36226;53.464;9.852;2023-04-03T06:09:52;6.70;;;2.15;;
50319;SDS011;36226;53.464;9.852;2023-04-03T06:12:18;5.05;;;1.65;;
50319;SDS011;36226;53.464;9.852;2023-04-03T06:14:43;4.50;;;1.48;;
50319;SDS011;36226;53.464;9.852;2023-04-03T06:17:09;4.93;;;2.30;;
50319;SDS011;36226;53.464;9.852;2023-04-03T06:19:35;6.75;;;1.67;;
50319;SDS011;36226;53.464;9.852;2023-04-03T06:22:01;4.22;;;2.08;;
50319;SDS011;36226;53.464;9.852;2023-04-03T06:24:26;4.40;;;2.00;;
50319;SDS011;36226;53.464;9.852;2023-04-03T06:26:52;5.88;;;2.25;;
50319;SDS011;36226;53.464;9.852;2023-04-03T06:29:18;5.35;;;2.00;;
50319;SDS011;36226;53.464;9.852;2023-04-03T06:31:44;6.75;;;3.30;;
50319;SDS011;36226;53.464;9.852;2023-04-03T06:34:10;6.85;;;2.30;;
50319;SDS011;36226;53.464;9.852;2023-04-03T06:36:36;6.03;;;2.63;;
50319;SDS011;36226;53.464;9.852;2023-04-03T06:39:02;9.15;;;2.72;;
50319;SDS011;36226;53.464;9.852;2023-04-03T06:41:28;7.00;;;2.30;;
50319;SDS011;36226;53.464;9.852;2023-04-03T06:43:53;5.38;;;2.63;;
50319;SDS011;36226;53.464;9.852;2023-04-03T06:46:21;9.73;;;2.63;;
50319;SDS011;36226;53.464;9.852;2023-04-03T06:48:48;5.38;;;2.38;;
50319;SDS011;36226;53.464;9.852;2023-04-03T06:53:52;8.02;;;2.55;;
50319;SDS011;36226;53.464;9.852;2023-04-03T06:56:19;7.90;;;2.35;;
50319;SDS011;36226;53.464;9.852;2023-04-03T06:58:45;9.43;;;2.63;;
50319;SDS011;36226;53.464;9.852;2023-04-03T07:01:11;7.38;;;2.60;;
50319;SDS011;36226;53.464;9.852;2023-04-03T07:03:39;5.35;;;2.40;;
50319;SDS011;36226;53.464;9.852;2023-04-03T07:06:05;6.53;;;1.98;;
50319;SDS011;36226;53.464;9.852;2023-04-03T07:08:32;6.90;;;2.55;;
50319;SDS011;36226;53.464;9.852;2023-04-03T07:10:58;6.95;;;2.88;;
50319;SDS011;36226;53.464;9.852;2023-04-03T07:13:23;7.30;;;2.70;;
50319;SDS011;36226;53.464;9.852;2023-04-03T07:15:48;7.75;;;2.70;;
50319;SDS011;36226;53.464;9.852;2023-04-03T07:18:15;5.40;;;2.22;;
50319;SDS011;36226;53.464;9.852;2023-04-03T07:20:41;6.03;;;2.47;;
50319;SDS011;36226;53.464;9.852;2023-04-03T07:23:07;10.20;;;2.60;;
50319;SDS011;36226;53.464;9.852;2023-04-03T07:25:32;8.60;;;2.70;;
50319;SDS011;36226;53.464;9.852;2023-04-03T07:27:58;6.70;;;2.10;;
50319;SDS011;36226;53.464;9.852;2023-04-03T07:30:24;7.03;;;2.22;;
50319;SDS011;36226;53.464;9.852;2023-04-03T07:32:49;6.72;;;2.22;;
50319;SDS011;36226;53.464;9.852;2023-04-03T07:35:15;5.28;;;1.58;;
50319;SDS011;36226;53.464;9.852;2023-04-03T07:37:41;6.57;;;2.47;;
50319;SDS011;36226;53.464;9.852;2023-04-03T07:40:07;5.32;;;1.25;;
50319;SDS011;36226;53.464;9.852;2023-04-03T07:42:33;3.10;;;1.00;;
50319;SDS011;36226;53.464;9.852;2023-04-03T07:44:59;6.63;;;1.30;;
50319;SDS011;36226;53.464;9.852;2023-04-03T07:47:25;6.80;;;1.50;;
50319;SDS011;36226;53.464;9.852;2023-04-03T07:49:51;6.05;;;1.60;;
50319;SDS011;36226;53.464;9.852;2023-04-03T07:52:16;3.25;;;1.10;;
50319;SDS011;36226;53.464;9.852;2023-04-03T07:54:41;3.35;;;0.95;;
50319;SDS011;36226;53.464;9.852;2023-04-03T07:57:07;4.15;;;1.20;;
50319;SDS011;36226;53.464;9.852;2023-04-03T07:59:32;4.50;;;1.40;;
50319;SDS011;36226;53.464;9.852;2023-04-03T08:01:58;1.65;;;0.90;;
50319;SDS011;36226;53.464;9.852;2023-04-03T08:04:23;6.63;;;1.00;;
50319;SDS011;36226;53.464;9.852;2023-04-03T08:06:49;6.03;;;1.13;;
50319;SDS011;36226;53.464;9.852;2023-04-03T08:09:16;4.05;;;1.10;;
50319;SDS011;36226;53.464;9.852;2023-04-03T08:11:42;4.07;;;0.88;;
50319;SDS011;36226;53.464;9.852;2023-04-03T08:14:07;3.13;;;1.10;;
50319;SDS011;36226;53.464;9.852;2023-04-03T08:16:33;3.28;;;0.80;;
50319;SDS011;36226;53.464;9.852;2023-04-03T08:18:58;4.88;;;1.30;;
50319;SDS011;36226;53.464;9.852;2023-04-03T08:21:24;3.05;;;0.80;;
50319;SDS011;36226;53.464;9.852;2023-04-03T08:23:50;4.20;;;1.00;;
50319;SDS011;36226;53.464;9.852;2023-04-03T08:26:18;4.72;;;1.70;;
50319;SDS011;36226;53.464;9.852;2023-04-03T08:28:45;3.00;;;0.82;;
50319;SDS011;36226;53.464;9.852;2023-04-03T08:31:13;4.45;;;1.00;;
50319;SDS011;36226;53.464;9.852;2023-04-03T08:33:40;4.45;;;0.90;;
50319;SDS011;36226;53.464;9.852;2023-04-03T08:36:06;3.30;;;0.80;;
50319;SDS011;36226;53.464;9.852;2023-04-03T08:38:33;5.22;;;0.73;;
50319;SDS011;36226;53.464;9.852;2023-04-03T08:41:10;5.53;;;0.70;;
50319;SDS011;36226;53.464;9.852;2023-04-03T08:43:55;3.70;;;1.00;;
50319;SDS011;36226;53.464;9.852;2023-04-03T08:46:25;1.73;;;0.63;;
50319;SDS011;36226;53.464;9.852;2023-04-03T08:48:56;2.75;;;0.70;;
50319;SDS011;36226;53.464;9.852;2023-04-03T08:51:23;4.60;;;1.20;;
50319;SDS011;36226;53.464;9.852;2023-04-03T08:54:13;3.40;;;1.00;;
50319;SDS011;36226;53.464;9.852;2023-04-03T08:56:39;2.17;;;0.80;;
50319;SDS011;36226;53.464;9.852;2023-04-03T08:59:09;3.38;;;0.60;;
50319;SDS011;36226;53.464;9.852;2023-04-03T09:01:40;2.80;;;0.95;;
50319;SDS011;36226;53.464;9.852;2023-04-03T09:04:12;3.83;;;0.85;;
50319;SDS011;36226;53.464;9.852;2023-04-03T09:06:39;1.58;;;0.52;;
50319;SDS011;36226;53.464;9.852;2023-04-03T09:14:42;4.15;;;0.80;;
50319;SDS011;36226;53.464;9.852;2023-04-03T09:23:17;3.40;;;1.00;;
50319;SDS011;36226;53.464;9.852;2023-04-03T09:25:45;3.25;;;0.90;;
50319;SDS011;36226;53.464;9.852;2023-04-03T09:28:10;5.95;;;1.00;;
50319;SDS011;36226;53.464;9.852;2023-04-03T09:30:37;4.10;;;0.90;;
50319;SDS011;36226;53.464;9.852;2023-04-03T09:33:03;4.35;;;0.65;;
50319;SDS011;36226;53.464;9.852;2023-04-03T09:35:29;1.92;;;0.70;;
50319;SDS011;36226;53.464;9.852;2023-04-03T09:38:01;3.00;;;0.70;;
50319;SDS011;36226;53.464;9.852;2023-04-03T09:40:37;5.68;;;1.10;;
50319;SDS011;36226;53.464;9.852;2023-04-03T09:43:23;1.77;;;0.60;;
50319;SDS011;36226;53.464;9.852;2023-04-03T09:45:54;2.80;;;0.80;;
50319;SDS011;36226;53.464;9.852;2023-04-03T09:48:21;7.97;;;1.25;;
50319;SDS011;36226;53.464;9.852;2023-04-03T09:53:28;3.78;;;0.85;;
50319;SDS011;36226;53.464;9.852;2023-04-03T09:58:46;3.60;;;0.80;;
50319;SDS011;36226;53.464;9.852;2023-04-03T10:01:25;3.72;;;0.60;;
50319;SDS011;36226;53.464;9.852;2023-04-03T10:04:04;3.25;;;0.70;;
50319;SDS011;36226;53.464;9.852;2023-04-03T10:06:41;3.13;;;0.80;;
50319;SDS011;36226;53.464;9.852;2023-04-03T10:09:17;3.13;;;0.60;;
50319;SDS011;36226;53.464;9.852;2023-04-03T10:14:27;1.63;;;0.63;;
50319;SDS011;36226;53.464;9.852;2023-04-03T10:16:56;2.50;;;0.77;;
50319;SDS011;36226;53.464;9.852;2023-04-03T10:41:16;2.10;;;0.73;;
50319;SDS011;36226;53.464;9.852;2023-04-03T10:43:50;2.78;;;0.70;;
50319;SDS011;36226;53.464;9.852;2023-04-03T10:49:05;1.48;;;0.88;;
50319;SDS011;36226;53.464;9.852;2023-04-03T10:54:25;3.35;;;0.70;;
50319;SDS011;36226;53.464;9.852;2023-04-03T10:57:13;1.58;;;0.70;;
50319;SDS011;36226;53.464;9.852;2023-04-03T11:04:51;2.47;;;0.63;;
50319;SDS011;36226;53.464;9.852;2023-04-03T11:07:42;2.08;;;0.60;;
50319;SDS011;36226;53.464;9.852;2023-04-03T11:10:25;1.92;;;0.57;;
50319;SDS011;36226;53.464;9.852;2023-04-03T11:15:40;2.28;;;0.65;;
50319;SDS011;36226;53.464;9.852;2023-04-03T11:18:11;1.67;;;0.50;;
50319;SDS011;36226;53.464;9.852;2023-04-03T11:20:39;4.40;;;0.80;;
50319;SDS011;36226;53.464;9.852;2023-04-03T11:25:47;2.90;;;0.82;;
50319;SDS011;36226;53.464;9.852;2023-04-03T11:28:15;1.38;;;0.75;;
50319;SDS011;36226;53.464;9.852;2023-04-03T11:33:31;1.55;;;0.47;;
50319;SDS011;36226;53.464;9.852;2023-04-03T11:38:41;2.83;;;0.70;;
50319;SDS011;36226;53.464;9.852;2023-04-03T11:41:08;1.23;;;0.40;;
50319;SDS011;36226;53.464;9.852;2023-04-03T11:43:36;1.58;;;0.50;;
50319;SDS011;36226;53.464;9.852;2023-04-03T11:46:06;2.22;;;0.70;;
50319;SDS011;36226;53.464;9.852;2023-04-03T11:53:37;1.77;;;0.60;;
50319;SDS011;36226;53.464;9.852;2023-04-03T11:59:14;3.63;;;0.57;;
50319;SDS011;36226;53.464;9.852;2023-04-03T12:04:12;4.20;;;0.70;;
50319;SDS011;36226;53.464;9.852;2023-04-03T12:09:27;2.22;;;0.63;;
50319;SDS011;36226;53.464;9.852;2023-04-03T12:11:56;3.85;;;0.98;;
50319;SDS011;36226;53.464;9.852;2023-04-03T12:14:23;2.80;;;0.75;;
50319;SDS011;36226;53.464;9.852;2023-04-03T12:16:50;2.85;;;0.70;;
50319;SDS011;36226;53.464;9.852;2023-04-03T12:29:33;2.78;;;0.73;;
50319;SDS011;36226;53.464;9.852;2023-04-03T12:37:14;1.38;;;0.77;;
50319;SDS011;36226;53.464;9.852;2023-04-03T12:39:55;3.13;;;0.80;;
50319;SDS011;36226;53.464;9.852;2023-04-03T12:42:42;2.38;;;0.88;;
50319;SDS011;36226;53.464;9.852;2023-04-03T12:45:21;4.05;;;0.80;;
50319;SDS011;36226;53.464;9.852;2023-04-03T12:47:49;3.10;;;0.93;;
50319;SDS011;36226;53.464;9.852;2023-04-03T12:50:23;4.93;;;0.88;;
50319;SDS011;36226;53.464;9.852;2023-04-03T12:52:55;2.50;;;0.70;;
50319;SDS011;36226;53.464;9.852;2023-04-03T12:55:21;1.95;;;0.77;;
50319;SDS011;36226;53.464;9.852;2023-04-03T12:57:47;4.45;;;0.80;;
50319;SDS011;36226;53.464;9.852;2023-04-03T13:00:27;2.03;;;0.93;;
50319;SDS011;36226;53.464;9.852;2023-04-03T13:02:58;5.82;;;0.95;;
50319;SDS011;36226;53.464;9.852;2023-04-03T13:05:25;1.48;;;0.80;;
50319;SDS011;36226;53.464;9.852;2023-04-03T13:08:01;3.35;;;1.00;;
50319;SDS011;36226;53.464;9.852;2023-04-03T13:10:31;3.63;;;0.82;;
50319;SDS011;36226;53.464;9.852;2023-04-03T13:13:08;4.75;;;0.63;;
50319;SDS011;36226;53.464;9.852;2023-04-03T13:15:42;2.17;;;0.70;;
50319;SDS011;36226;53.464;9.852;2023-04-03T13:20:52;2.30;;;0.70;;
50319;SDS011;36226;53.464;9.852;2023-04-03T13:23:18;2.17;;;0.68;;
50319;SDS011;36226;53.464;9.852;2023-04-03T13:25:45;0.85;;;0.50;;
50319;SDS011;36226;53.464;9.852;2023-04-03T13:28:13;2.25;;;0.63;;
50319;SDS011;36226;53.464;9.852;2023-04-03T13:30:41;1.77;;;0.60;;
50319;SDS011;36226;53.464;9.852;2023-04-03T13:33:22;4.97;;;0.95;;
50319;SDS011;36226;53.464;9.852;2023-04-03T13:35:54;1.25;;;0.70;;
50319;SDS011;36226;53.464;9.852;2023-04-03T13:38:23;5.25;;;0.60;;
50319;SDS011;36226;53.464;9.852;2023-04-03T13:40:51;3.33;;;0.80;;
50319;SDS011;36226;53.464;9.852;2023-04-03T13:43:21;5.95;;;0.80;;
50319;SDS011;36226;53.464;9.852;2023-04-03T13:46:00;3.03;;;0.75;;
50319;SDS011;36226;53.464;9.852;2023-04-03T13:48:26;3.35;;;0.90;;
50319;SDS011;36226;53.464;9.852;2023-04-03T13:50:53;2.88;;;0.90;;
50319;SDS011;36226;53.464;9.852;2023-04-03T13:53:21;2.13;;;1.00;;
50319;SDS011;36226;53.464;9.852;2023-04-03T13:55:57;3.53;;;0.73;;
50319;SDS011;36226;53.464;9.852;2023-04-03T13:58:34;2.97;;;1.00;;
50319;SDS011;36226;53.464;9.852;2023-04-03T14:01:11;3.05;;;0.88;;
50319;SDS011;36226;53.464;9.852;2023-04-03T14:03:47;3.22;;;0.80;;
50319;SDS011;36226;53.464;9.852;2023-04-03T14:06:32;3.13;;;0.90;;
50319;SDS011;36226;53.464;9.852;2023-04-03T14:08:58;4.00;;;1.00;;
50319;SDS011;36226;53.464;9.852;2023-04-03T14:11:28;2.30;;;0.70;;
50319;SDS011;36226;53.464;9.852;2023-04-03T14:13:55;3.08;;;0.90;;
50319;SDS011;36226;53.464;9.852;2023-04-03T14:16:22;1.58;;;0.57;;
50319;SDS011;36226;53.464;9.852;2023-04-03T14:18:49;4.38;;;0.77;;
50319;SDS011;36226;53.464;9.852;2023-04-03T14:21:16;1.50;;;0.60;;
50319;SDS011;36226;53.464;9.852;2023-04-03T14:23:42;2.58;;;0.70;;
50319;SDS011;36226;53.464;9.852;2023-04-03T14:26:10;1.92;;;0.70;;
50319;SDS011;36226;53.464;9.852;2023-04-03T14:28:37;2.97;;;0.75;;
50319;SDS011;36226;53.464;9.852;2023-04-03T14:31:04;2.00;;;0.60;;
50319;SDS011;36226;53.464;9.852;2023-04-03T14:33:30;2.15;;;0.60;;
50319;SDS011;36226;53.464;9.852;2023-04-03T14:35:59;3.95;;;0.90;;
50319;SDS011;36226;53.464;9.852;2023-04-03T14:38:28;3.65;;;0.90;;
50319;SDS011;36226;53.464;9.852;2023-04-03T14:40:55;1.80;;;0.82;;
50319;SDS011;36226;53.464;9.852;2023-04-03T14:43:21;1.40;;;0.55;;
50319;SDS011;36226;53.464;9.852;2023-04-03T14:45:47;3.47;;;0.75;;
50319;SDS011;36226;53.464;9.852;2023-04-03T14:48:21;4.57;;;0.90;;
50319;SDS011;36226;53.464;9.852;2023-04-03T14:50:49;5.87;;;0.80;;
50319;SDS011;36226;53.464;9.852;2023-04-03T14:53:15;3.40;;;0.68;;
50319;SDS011;36226;53.464;9.852;2023-04-03T14:55:45;3.80;;;1.92;;
50319;SDS011;36226;53.464;9.852;2023-04-03T14:58:14;2.28;;;0.90;;
50319;SDS011;36226;53.464;9.852;2023-04-03T15:00:41;2.83;;;0.80;;
50319;SDS011;36226;53.464;9.852;2023-04-03T15:03:17;3.67;;;0.82;;
50319;SDS011;36226;53.464;9.852;2023-04-03T15:05:45;1.20;;;0.60;;
50319;SDS011;36226;53.464;9.852;2023-04-03T15:08:19;4.03;;;1.00;;
50319;SDS011;36226;53.464;9.852;2023-04-03T15:10:46;3.17;;;1.02;;
50319;SDS011;36226;53.464;9.852;2023-04-03T15:13:12;2.22;;;1.08;;
50319;SDS011;36226;53.464;9.852;2023-04-03T15:15:37;1.88;;;0.50;;
50319;SDS011;36226;53.464;9.852;2023-04-03T15:18:03;3.83;;;0.82;;
50319;SDS011;36226;53.464;9.852;2023-04-03T15:20:29;2.70;;;0.82;;
50319;SDS011;36226;53.464;9.852;2023-04-03T15:22:55;3.47;;;0.60;;
50319;SDS011;36226;53.464;9.852;2023-04-03T15:25:21;1.70;;;0.60;;
50319;SDS011;36226;53.464;9.852;2023-04-03T15:27:47;3.67;;;0.82;;
50319;SDS011;36226;53.464;9.852;2023-04-03T15:30:14;2.30;;;0.65;;
50319;SDS011;36226;53.464;9.852;2023-04-03T15:32:40;3.80;;;1.00;;
50319;SDS011;36226;53.464;9.852;2023-04-03T15:35:06;2.50;;;0.80;;
50319;SDS011;36226;53.464;9.852;2023-04-03T15:37:32;2.47;;;0.80;;
50319;SDS011;36226;53.464;9.852;2023-04-03T15:39:57;2.25;;;0.80;;
50319;SDS011;36226;53.464;9.852;2023-04-03T15:42:22;3.30;;;0.80;;
50319;SDS011;36226;53.464;9.852;2023-04-03T15:44:48;4.18;;;0.80;;
50319;SDS011;36226;53.464;9.852;2023-04-03T15:47:13;2.63;;;0.90;;
50319;SDS011;36226;53.464;9.852;2023-04-03T15:49:39;1.88;;;1.10;;
50319;SDS011;36226;53.464;9.852;2023-04-03T15:52:04;2.65;;;0.68;;
50319;SDS011;36226;53.464;9.852;2023-04-03T15:54:30;2.08;;;0.98;;
50319;SDS011;36226;53.464;9.852;2023-04-03T15:56:56;1.33;;;0.70;;
50319;SDS011;36226;53.464;9.852;2023-04-03T15:59:22;1.80;;;0.65;;
50319;SDS011;36226;53.464;9.852;2023-04-03T16:01:47;3.47;;;1.75;;
50319;SDS011;36226;53.464;9.852;2023-04-03T16:04:13;3.75;;;1.92;;
50319;SDS011;36226;53.464;9.852;2023-04-03T16:06:39;3.58;;;1.60;;
50319;SDS011;36226;53.464;9.852;2023-04-03T16:09:05;4.55;;;1.50;;
50319;SDS011;36226;53.464;9.852;2023-04-03T16:11:31;3.28;;;1.10;;
50319;SDS011;36226;53.464;9.852;2023-04-03T16:13:56;2.78;;;0.90;;
50319;SDS011;36226;53.464;9.852;2023-04-03T16:16:22;3.47;;;0.90;;
50319;SDS011;36226;53.464;9.852;2023-04-03T16:18:48;3.42;;;1.38;;
50319;SDS011;36226;53.464;9.852;2023-04-03T16:21:14;2.13;;;1.20;;
50319;SDS011;36226;53.464;9.852;2023-04-03T16:23:41;3.50;;;0.90;;
50319;SDS011;36226;53.464;9.852;2023-04-03T16:26:06;1.80;;;0.90;;
50319;SDS011;36226;53.464;9.852;2023-04-03T16:28:32;3.78;;;1.50;;
50319;SDS011;36226;53.464;9.852;2023-04-03T16:30:57;3.72;;;1.70;;
50319;SDS011;36226;53.464;9.852;2023-04-03T16:33:25;3.53;;;1.30;;
50319;SDS011;36226;53.464;9.852;2023-04-03T16:35:50;3.13;;;1.20;;